Time;durP1;ratioP1;P1;durP2;ratioP2;P2;SDS_P1;SDS_P2;PMS_P1;PMS_P2;Temp;Humidity;BMP_temperature;BMP_pressure;BME280_temperature;BME280_humidity;BME280_pressure;Samples;Min_cycle;Max_cycle;Signal;HPM_P1;HPM_P2
2022/05/03 00:01:10;;;;;;;;;;;;;;;15.95;39.95;102038.25;5013666;28;19921;-70
2022/05/03 00:03:35;;;;;;;;;;;;;;;15.99;40.46;102031.31;5013802;28;20016;-70
2022/05/03 00:06:02;;;;;;;;;;;;;;;15.90;40.60;102032.72;5016407;28;19927;-69
2022/05/03 00:08:32;;;;;;;;;;;;;;;15.89;40.96;102034.59;5033468;28;19917;-68
2022/05/03 00:11:06;;;;;;;;;;;;;;;15.72;41.14;102030.88;5033532;28;19921;-69
2022/05/03 00:13:58;;;;;;;;;;;;;;;15.65;41.61;102027.41;5033723;28;19917;-69
2022/05/03 00:16:24;;;;;;;;;;;;;;;15.58;41.77;102026.69;5031163;28;19928;-70
2022/05/03 00:18:50;;;;;;;;;;;;;;;15.62;42.46;102022.47;5033402;28;19918;-71
2022/05/03 00:21:15;;;;;;;;;;;;;;;15.42;44.05;102022.75;5033338;28;20019;-69
2022/05/03 00:23:41;;;;;;;;;;;;;;;15.46;44.16;102014.97;5033227;28;19917;-69
2022/05/03 00:26:06;;;;;;;;;;;;;;;15.53;44.07;102026.53;5033068;28;20495;-69
2022/05/03 00:28:32;;;;;;;;;;;;;;;15.45;42.48;102022.25;5033030;28;19948;-68
2022/05/03 00:30:58;;;;;;;;;;;;;;;15.46;42.75;102017.69;5033114;28;19928;-68
2022/05/03 00:33:24;;;;;;;;;;;;;;;15.64;42.62;102014.94;5033137;28;19921;-69
2022/05/03 00:35:49;;;;;;;;;;;;;;;15.39;42.44;102014.22;5033214;28;19924;-70
2022/05/03 00:38:15;;;;;;;;;;;;;;;15.26;43.12;102014.38;5032958;28;19921;-69
2022/05/03 00:40:47;;;;;;;;;;;;;;;14.99;44.36;102013.88;5033036;28;19941;-69
2022/05/03 00:43:23;;;;;;;;;;;;;;;14.39;47.13;102022.78;5032520;28;19925;-69
2022/05/03 00:45:53;;;;;;;;;;;;;;;15.23;44.98;102021.09;5022286;28;19933;-70
2022/05/03 00:48:28;;;;;;;;;;;;;;;15.35;43.93;102021.94;5013489;28;19933;-69
2022/05/03 00:50:57;;;;;;;;;;;;;;;15.38;43.12;102021.50;5013130;28;20391;-69
2022/05/03 00:53:22;;;;;;;;;;;;;;;15.40;42.60;102022.09;5012811;28;19972;-68
2022/05/03 00:56:12;;;;;;;;;;;;;;;15.42;42.27;102016.47;5012577;28;19921;-70
2022/05/03 00:58:43;;;;;;;;;;;;;;;15.58;42.00;102016.69;5012855;28;19954;-70
2022/05/03 01:01:11;;;;;;;;;;;;;;;15.41;42.92;102017.53;5012732;28;20504;-70
2022/05/03 01:03:43;;;;;;;;;;;;;;;15.27;43.86;102019.53;5012586;28;19917;-68
2022/05/03 01:06:18;;;;;;;;;;;;;;;14.99;44.59;102021.97;5016430;28;19975;-69
2022/05/03 01:08:55;;;;;;;;;;;;;;;15.07;44.47;102013.56;5032334;28;19929;-70
2022/05/03 01:11:53;;;;;;;;;;;;;;;14.84;44.11;102011.50;5032215;28;20043;-69
2022/05/03 01:14:21;;;;;;;;;;;;;;;14.92;44.84;102002.25;4990219;28;19976;-70
2022/05/03 01:16:59;;;;;;;;;;;;;;;14.85;44.03;101999.66;4990272;28;19930;-69
2022/05/03 01:19:27;;;;;;;;;;;;;;;14.91;43.67;101990.63;4973605;28;19918;-68
2022/05/03 01:22:04;;;;;;;;;;;;;;;15.16;43.05;101990.53;4990337;28;19928;-70
2022/05/03 01:24:45;;;;;;;;;;;;;;;15.36;42.64;101988.41;4956342;28;19997;-68
2022/05/03 01:27:22;;;;;;;;;;;;;;;15.14;43.08;101980.97;4952032;29;19958;-71
2022/05/03 01:29:49;;;;;;;;;;;;;;;14.71;44.88;101991.88;4934564;29;19945;-70
2022/05/03 01:32:18;;;;;;;;;;;;;;;13.66;48.94;101992.72;4951365;28;19926;-69
2022/05/03 01:34:45;;;;;;;;;;;;;;;14.23;47.66;102001.69;4950721;29;19934;-68
2022/05/03 01:37:10;;;;;;;;;;;;;;;14.47;46.76;101995.44;4947351;29;20339;-69
2022/05/03 01:39:54;;;;;;;;;;;;;;;14.61;46.35;101994.28;4951710;29;19970;-69
2022/05/03 01:42:29;;;;;;;;;;;;;;;14.48;46.21;101997.97;4951783;29;19930;-70
2022/05/03 01:44:54;;;;;;;;;;;;;;;14.49;46.69;101991.47;4952581;28;20385;-70
2022/05/03 01:47:22;;;;;;;;;;;;;;;14.44;45.83;101995.91;4951586;28;19942;-70
2022/05/03 01:52:32;;;;;;;;;;;;;;;14.53;45.94;101986.44;4992764;28;19928;-70
2022/05/03 01:55:02;;;;;;;;;;;;;;;14.65;44.94;101993.63;4992932;28;20290;-70
2022/05/03 01:57:53;;;;;;;;;;;;;;;14.78;45.76;101993.47;4992393;28;19918;-69
2022/05/03 02:00:20;;;;;;;;;;;;;;;14.79;45.75;101994.31;4992848;28;19953;-70
2022/05/03 02:03:13;;;;;;;;;;;;;;;14.85;44.78;102001.53;4992313;28;20005;-70
2022/05/03 02:05:41;;;;;;;;;;;;;;;14.74;44.82;102007.69;4992371;28;20020;-69
2022/05/03 02:08:10;;;;;;;;;;;;;;;14.72;45.09;101996.25;5031315;28;19953;-69
2022/05/03 02:10:50;;;;;;;;;;;;;;;14.70;45.73;102004.59;5031800;28;19921;-70
2022/05/03 02:14:43;;;;;;;;;;;;;;;14.59;46.76;101999.91;5031538;28;19979;-68
2022/05/03 02:16:22;;;;;;;;;;;;;;;14.72;45.27;102001.69;5031703;28;19929;-69
2022/05/03 02:18:56;;;;;;;;;;;;;;;14.10;46.38;101994.50;5031857;28;19927;-71
2022/05/03 02:21:25;;;;;;;;;;;;;;;14.62;46.41;102004.88;5032156;28;19913;-69
2022/05/03 02:24:05;;;;;;;;;;;;;;;14.39;46.25;101996.56;5019884;28;19972;-70
2022/05/03 02:26:53;;;;;;;;;;;;;;;14.33;47.44;101996.66;5011724;28;19999;-70
2022/05/03 02:29:21;;;;;;;;;;;;;;;14.47;46.90;101990.03;5011578;28;19929;-70
2022/05/03 02:31:56;;;;;;;;;;;;;;;14.04;48.93;101993.50;5011788;28;19928;-70
2022/05/03 02:34:24;;;;;;;;;;;;;;;14.25;47.89;101991.47;5011759;28;20008;-70
2022/05/03 02:37:16;;;;;;;;;;;;;;;14.63;46.41;101984.91;5003552;28;19929;-70
2022/05/03 02:39:59;;;;;;;;;;;;;;;14.53;46.89;101989.16;4990610;28;20001;-70
2022/05/03 02:42:25;;;;;;;;;;;;;;;14.28;48.05;101985.66;4992788;28;19971;-69
2022/05/03 02:44:52;;;;;;;;;;;;;;;14.48;46.64;101970.91;4996148;28;20008;-69
2022/05/03 02:47:23;;;;;;;;;;;;;;;14.37;46.98;101985.16;5015476;28;19925;-70
2022/05/03 02:50:21;;;;;;;;;;;;;;;14.37;47.16;101977.03;5015551;28;19956;-70
2022/05/03 02:52:52;;;;;;;;;;;;;;;14.20;47.18;101970.50;5001694;28;20329;-70
2022/05/03 02:55:36;;;;;;;;;;;;;;;14.21;47.14;101976.75;5000633;28;20056;-69
2022/05/03 02:58:01;;;;;;;;;;;;;;;13.97;47.00;101981.09;5007846;28;20348;-70
2022/05/03 03:03:28;;;;;;;;;;;;;;;14.06;47.05;101977.91;5013308;28;19932;-69
2022/05/03 03:05:56;;;;;;;;;;;;;;;13.70;48.53;101980.44;4994527;28;19936;-69
2022/05/03 03:08:21;;;;;;;;;;;;;;;13.91;48.05;101981.97;5028579;28;19921;-69
2022/05/03 03:11:02;;;;;;;;;;;;;;;13.64;48.93;101983.22;5021008;28;19948;-70
2022/05/03 03:13:47;;;;;;;;;;;;;;;13.20;50.59;101984.06;5012174;28;19957;-68
2022/05/03 03:16:13;;;;;;;;;;;;;;;13.68;49.32;101987.94;5012577;28;20018;-70
2022/05/03 03:18:40;;;;;;;;;;;;;;;13.35;50.31;101979.19;5012220;28;19925;-70
2022/05/03 03:21:07;;;;;;;;;;;;;;;13.34;50.15;101982.13;4974171;28;20024;-69
2022/05/03 03:23:35;;;;;;;;;;;;;;;13.63;49.21;101986.94;4973738;28;20377;-70
2022/05/03 03:26:00;;;;;;;;;;;;;;;13.43;50.27;101986.22;4956263;28;19932;-69
2022/05/03 03:28:28;;;;;;;;;;;;;;;13.66;49.03;101983.81;4982718;28;19918;-68
2022/05/03 03:30:55;;;;;;;;;;;;;;;13.74;47.99;101978.97;4995189;28;19922;-69
2022/05/03 03:33:21;;;;;;;;;;;;;;;13.25;50.18;101978.84;4995401;28;20291;-69
2022/05/03 03:35:47;;;;;;;;;;;;;;;13.56;48.40;101978.06;4994947;28;19973;-70
2022/05/03 03:38:13;;;;;;;;;;;;;;;13.56;48.68;101972.66;5005856;28;19925;-69
2022/05/03 03:40:39;;;;;;;;;;;;;;;13.65;48.64;101990.25;4994742;28;19922;-69
2022/05/03 03:43:05;;;;;;;;;;;;;;;13.53;48.29;101986.56;4995104;28;19929;-69
2022/05/03 03:45:31;;;;;;;;;;;;;;;13.63;48.23;101978.84;5002402;28;19921;-69
2022/05/03 03:47:56;;;;;;;;;;;;;;;13.45;49.52;101989.53;5014760;28;20008;-70
2022/05/03 03:50:22;;;;;;;;;;;;;;;13.43;49.09;101986.22;5014132;28;19932;-71
2022/05/03 03:52:48;;;;;;;;;;;;;;;13.24;49.76;101988.00;5014378;28;19952;-72
2022/05/03 03:55:13;;;;;;;;;;;;;;;13.28;50.54;101982.97;5013891;28;19929;-70
2022/05/03 03:57:39;;;;;;;;;;;;;;;13.40;50.10;101994.75;5013223;28;19964;-70
2022/05/03 04:00:05;;;;;;;;;;;;;;;13.32;49.77;101998.53;5014342;28;19917;-69
2022/05/03 04:02:31;;;;;;;;;;;;;;;13.29;50.15;101992.75;4999306;28;19918;-70
2022/05/03 04:04:57;;;;;;;;;;;;;;;13.43;49.71;101984.34;4994191;28;20012;-71
2022/05/03 04:07:22;;;;;;;;;;;;;;;13.40;50.44;102000.16;5007529;28;20313;-69
2022/05/03 04:09:48;;;;;;;;;;;;;;;13.37;51.26;101992.47;5014036;28;20020;-70
2022/05/03 04:12:13;;;;;;;;;;;;;;;13.62;49.32;101985.28;5014203;28;19957;-69
2022/05/03 04:14:39;;;;;;;;;;;;;;;13.67;49.84;101990.88;5013645;28;20365;-72
2022/05/03 04:17:05;;;;;;;;;;;;;;;13.55;49.74;101985.31;5013532;28;20012;-70
2022/05/03 04:19:30;;;;;;;;;;;;;;;13.36;49.95;101990.84;5013887;28;20428;-69
2022/05/03 04:21:55;;;;;;;;;;;;;;;13.41;49.88;101994.53;5013135;28;20300;-70
2022/05/03 04:24:21;;;;;;;;;;;;;;;13.73;49.28;101992.69;5014091;28;19914;-68
2022/05/03 04:26:46;;;;;;;;;;;;;;;13.33;50.80;101989.38;5013714;28;19929;-70
2022/05/03 04:29:11;;;;;;;;;;;;;;;13.56;50.03;101989.66;5013373;28;20317;-70
2022/05/03 04:31:37;;;;;;;;;;;;;;;13.40;51.59;101990.19;5013860;28;19929;-70
2022/05/03 04:34:03;;;;;;;;;;;;;;;13.71;50.49;101992.09;5011739;28;20318;-69
2022/05/03 04:36:29;;;;;;;;;;;;;;;13.44;49.88;101994.13;5013450;28;19960;-69
2022/05/03 04:38:55;;;;;;;;;;;;;;;13.79;50.20;101987.25;5013832;28;19968;-70
2022/05/03 04:41:21;;;;;;;;;;;;;;;13.47;51.43;101995.53;5013386;28;19926;-70
2022/05/03 04:43:46;;;;;;;;;;;;;;;13.58;50.57;101995.69;5013171;28;19948;-70
2022/05/03 04:46:12;;;;;;;;;;;;;;;13.45;50.62;102000.34;5013202;28;19932;-70
2022/05/03 04:48:37;;;;;;;;;;;;;;;13.46;50.67;101994.75;5012957;28;19922;-69
2022/05/03 04:51:02;;;;;;;;;;;;;;;13.38;51.28;102004.94;5013604;28;19968;-69
2022/05/03 04:53:28;;;;;;;;;;;;;;;13.16;52.10;102002.56;5009265;28;19921;-69
2022/05/03 04:55:53;;;;;;;;;;;;;;;13.33;51.66;101997.47;5001613;28;20000;-69
2022/05/03 04:58:37;;;;;;;;;;;;;;;13.82;49.94;101999.47;4998977;28;19922;-71
2022/05/03 05:01:02;;;;;;;;;;;;;;;14.18;49.18;102001.50;4999466;28;20005;-69
2022/05/03 05:03:27;;;;;;;;;;;;;;;14.02;49.34;101998.31;5000371;28;19949;-72
2022/05/03 05:05:53;;;;;;;;;;;;;;;13.68;50.72;101996.03;5005138;28;20440;-69
2022/05/03 05:08:18;;;;;;;;;;;;;;;13.80;50.31;101996.16;5031817;28;20403;-70
2022/05/03 05:10:43;;;;;;;;;;;;;;;13.77;51.03;102004.72;4996710;28;20000;-69
2022/05/03 05:13:09;;;;;;;;;;;;;;;13.80;50.71;102007.81;5012688;28;20412;-72
2022/05/03 05:15:34;;;;;;;;;;;;;;;13.74;51.25;102010.53;5008263;28;19917;-70
2022/05/03 05:18:00;;;;;;;;;;;;;;;13.85;50.74;102015.28;5002081;28;19917;-69
2022/05/03 05:20:26;;;;;;;;;;;;;;;14.02;50.96;102021.81;4993272;28;19928;-69
2022/05/03 05:22:51;;;;;;;;;;;;;;;14.16;50.77;102015.25;4993193;28;19940;-70
2022/05/03 05:25:17;;;;;;;;;;;;;;;14.11;50.35;102013.19;4992814;28;19922;-70
2022/05/03 05:27:42;;;;;;;;;;;;;;;14.39;50.55;102015.50;4992968;28;19918;-69
2022/05/03 05:30:08;;;;;;;;;;;;;;;14.57;50.29;102017.41;4995267;28;19914;-70
2022/05/03 05:32:33;;;;;;;;;;;;;;;14.55;50.02;102014.94;5007574;28;19930;-69
2022/05/03 05:34:59;;;;;;;;;;;;;;;14.56;50.20;102022.03;5002455;28;20495;-71
2022/05/03 05:37:24;;;;;;;;;;;;;;;14.60;50.75;102028.63;5005519;28;19928;-70
2022/05/03 05:39:49;;;;;;;;;;;;;;;14.76;50.21;102022.63;5009129;28;20320;-71
2022/05/03 05:42:14;;;;;;;;;;;;;;;14.93;50.44;102029.13;5004016;28;19926;-72
2022/05/03 05:44:40;;;;;;;;;;;;;;;15.05;49.76;102020.25;5002028;28;19936;-70
2022/05/03 05:47:05;;;;;;;;;;;;;;;15.23;49.46;102034.63;5003102;28;20016;-69
2022/05/03 05:49:31;;;;;;;;;;;;;;;15.61;49.05;102018.09;5001160;28;20274;-69
2022/05/03 05:53:31;;;;;;;;;;;;;;;15.99;48.12;102023.19;5003723;28;19921;-70
2022/05/03 05:54:41;;;;;;;;;;;;;;;15.85;48.49;102027.97;4992317;28;19921;-69
2022/05/03 05:57:06;;;;;;;;;;;;;;;15.87;48.68;102025.84;4992767;28;19918;-70
2022/05/03 05:59:32;;;;;;;;;;;;;;;15.90;48.88;102019.97;4992102;28;19922;-69
2022/05/03 06:01:57;;;;;;;;;;;;;;;15.96;48.78;102018.22;4990869;28;20096;-70
2022/05/03 06:04:22;;;;;;;;;;;;;;;15.97;49.34;102014.44;4992332;28;19926;-70
2022/05/03 06:06:47;;;;;;;;;;;;;;;16.12;49.32;102017.53;4999701;28;19925;-71
2022/05/03 06:09:12;;;;;;;;;;;;;;;16.34;49.00;102014.03;5000389;28;20196;-70
2022/05/03 06:11:38;;;;;;;;;;;;;;;16.55;48.21;102007.22;4997426;28;19929;-72
2022/05/03 06:14:05;;;;;;;;;;;;;;;16.39;48.81;102016.06;4997542;28;19984;-69
2022/05/03 06:16:30;;;;;;;;;;;;;;;16.66;48.43;102011.84;4991746;28;19918;-70
2022/05/03 06:18:55;;;;;;;;;;;;;;;16.80;47.63;102010.53;4991781;28;20012;-71
2022/05/03 06:21:20;;;;;;;;;;;;;;;17.18;46.70;102008.09;5014392;28;19956;-72
2022/05/03 06:23:46;;;;;;;;;;;;;;;17.50;46.52;102009.34;5000199;28;19926;-71
2022/05/03 06:26:11;;;;;;;;;;;;;;;17.66;46.45;102009.63;5010420;28;19922;-70
2022/05/03 06:28:36;;;;;;;;;;;;;;;18.33;45.47;102011.34;5011741;28;19921;-71
2022/05/03 06:31:02;;;;;;;;;;;;;;;18.32;44.95;102015.97;5010392;28;19923;-69
2022/05/03 06:33:27;;;;;;;;;;;;;;;18.34;44.51;102002.94;5011690;28;20374;-70
2022/05/03 06:35:52;;;;;;;;;;;;;;;18.36;44.85;102008.13;5011855;28;19924;-72
2022/05/03 06:38:18;;;;;;;;;;;;;;;17.80;45.71;102011.81;5002451;28;20262;-71
2022/05/03 06:40:43;;;;;;;;;;;;;;;18.94;43.53;102008.50;5006903;28;20301;-72
2022/05/03 06:43:08;;;;;;;;;;;;;;;19.23;42.53;102020.03;5006324;28;19957;-70
2022/05/03 06:45:34;;;;;;;;;;;;;;;19.25;41.98;102015.13;5004001;28;19922;-70
2022/05/03 06:48:00;;;;;;;;;;;;;;;19.54;41.83;102011.16;5005692;28;20332;-70
2022/05/03 06:50:25;;;;;;;;;;;;;;;19.50;42.01;102015.47;5003966;28;19926;-70
2022/05/03 06:52:50;;;;;;;;;;;;;;;19.05;43.46;102009.44;4997459;28;20301;-70
2022/05/03 06:55:16;;;;;;;;;;;;;;;18.96;44.22;102022.69;4991576;28;19918;-70
2022/05/03 06:57:41;;;;;;;;;;;;;;;19.33;43.15;102022.06;4994057;28;19982;-71
2022/05/03 07:00:07;;;;;;;;;;;;;;;18.73;43.97;102019.34;4996679;28;19918;-71
2022/05/03 07:02:32;;;;;;;;;;;;;;;19.41;43.21;102021.63;4999036;28;19927;-70
2022/05/03 07:04:59;;;;;;;;;;;;;;;18.87;44.56;102018.72;5011582;28;20459;-70
2022/05/03 07:07:24;;;;;;;;;;;;;;;19.28;43.84;102022.81;5011434;28;20308;-71
2022/05/03 07:09:50;;;;;;;;;;;;;;;18.90;45.09;102020.97;5011371;28;20008;-70
2022/05/03 07:12:15;;;;;;;;;;;;;;;18.60;45.60;102025.97;5011761;28;19976;-70
2022/05/03 07:14:40;;;;;;;;;;;;;;;18.43;46.71;102025.16;5010951;28;20258;-69
2022/05/03 07:17:05;;;;;;;;;;;;;;;19.08;45.29;102028.00;5007011;28;19930;-69
2022/05/03 07:24:58;;;;;;;;;;;;;;;19.64;44.18;102035.81;4991539;28;19936;-71
2022/05/03 07:27:23;;;;;;;;;;;;;;;19.86;43.59;102038.50;4991990;28;19918;-70
2022/05/03 07:29:49;;;;;;;;;;;;;;;19.48;44.84;102038.63;4991365;28;19957;-71
2022/05/03 07:32:14;;;;;;;;;;;;;;;19.38;44.63;102035.78;5013312;28;20384;-70
2022/05/03 07:34:39;;;;;;;;;;;;;;;18.51;47.17;102042.97;5012552;28;19928;-72
2022/05/03 07:37:05;;;;;;;;;;;;;;;18.98;46.70;102042.31;5005092;28;19917;-70
2022/05/03 07:39:30;;;;;;;;;;;;;;;18.84;46.97;102041.03;4995605;28;19924;-71
2022/05/03 07:41:57;;;;;;;;;;;;;;;19.02;46.42;102054.38;5010636;28;20041;-70
2022/05/03 07:44:22;;;;;;;;;;;;;;;18.92;46.33;102053.41;5002604;28;20299;-71
2022/05/03 07:46:47;;;;;;;;;;;;;;;18.24;48.84;102049.03;5015835;28;20016;-72
2022/05/03 07:49:13;;;;;;;;;;;;;;;18.20;48.80;102055.22;5014280;28;19925;-70
2022/05/03 07:51:41;;;;;;;;;;;;;;;18.30;48.54;102050.75;5014269;28;19963;-70
2022/05/03 07:54:07;;;;;;;;;;;;;;;18.90;46.62;102053.66;5015032;28;19941;-70
2022/05/03 07:56:33;;;;;;;;;;;;;;;19.14;46.41;102062.44;5012718;28;19953;-71
2022/05/03 07:59:10;;;;;;;;;;;;;;;18.48;47.94;102051.63;5022589;28;19928;-70
2022/05/03 08:01:39;;;;;;;;;;;;;;;19.67;45.56;102053.56;5034498;28;20327;-70
2022/05/03 08:04:05;;;;;;;;;;;;;;;19.27;46.10;102049.25;5030680;28;19928;-71
2022/05/03 08:06:30;;;;;;;;;;;;;;;20.55;42.90;102055.78;5014359;28;19933;-70
2022/05/03 08:08:56;;;;;;;;;;;;;;;20.54;42.70;102057.69;5014829;28;20288;-71
2022/05/03 08:11:21;;;;;;;;;;;;;;;20.05;44.38;102061.59;5014696;28;19928;-70
2022/05/03 08:13:48;;;;;;;;;;;;;;;19.89;44.88;102054.38;5014136;28;19929;-70
2022/05/03 08:16:17;;;;;;;;;;;;;;;20.08;44.04;102061.09;5012848;28;19988;-70
2022/05/03 08:18:43;;;;;;;;;;;;;;;20.55;43.25;102066.72;5013351;28;19929;-70
2022/05/03 08:21:08;;;;;;;;;;;;;;;20.14;44.22;102070.97;4994864;28;20369;-70
2022/05/03 08:23:35;;;;;;;;;;;;;;;19.81;45.29;102077.44;4996238;28;20297;-71
2022/05/03 08:26:00;;;;;;;;;;;;;;;19.82;45.23;102073.66;4994680;28;19933;-71
2022/05/03 08:28:25;;;;;;;;;;;;;;;19.79;45.44;102070.63;4994322;28;19918;-70
2022/05/03 08:30:51;;;;;;;;;;;;;;;18.81;47.95;102085.09;5007890;28;19948;-71
2022/05/03 08:33:16;;;;;;;;;;;;;;;18.45;49.17;102077.44;5014072;28;19914;-69
2022/05/03 08:35:41;;;;;;;;;;;;;;;19.35;47.37;102078.00;5013806;28;19921;-70
2022/05/03 08:43:34;;;;;;;;;;;;;;;19.30;46.91;102086.09;5013544;28;19927;-71
2022/05/03 08:46:01;;;;;;;;;;;;;;;19.58;45.93;102085.09;5013093;28;20012;-71
2022/05/03 08:48:29;;;;;;;;;;;;;;;19.59;46.08;102086.75;5013332;28;19922;-69
2022/05/03 08:50:54;;;;;;;;;;;;;;;19.79;45.46;102085.06;5013514;28;19964;-70
2022/05/03 08:53:20;;;;;;;;;;;;;;;20.04;44.58;102095.44;5013429;28;20324;-70
2022/05/03 08:55:50;;;;;;;;;;;;;;;19.83;45.04;102086.19;5013169;28;19921;-70
2022/05/03 08:58:17;;;;;;;;;;;;;;;20.61;43.45;102087.53;5013377;28;19941;-69
2022/05/03 09:00:43;;;;;;;;;;;;;;;21.12;42.12;102096.91;5013701;28;19918;-71
2022/05/03 09:03:08;;;;;;;;;;;;;;;21.31;41.31;102089.91;5013738;28;20415;-71
2022/05/03 09:05:33;;;;;;;;;;;;;;;21.19;42.04;102097.53;5013030;28;19929;-70
2022/05/03 09:07:59;;;;;;;;;;;;;;;20.83;42.21;102088.25;5012954;28;19945;-70
2022/05/03 09:10:26;;;;;;;;;;;;;;;19.64;45.63;102094.97;5012436;28;19928;-69
2022/05/03 09:12:51;;;;;;;;;;;;;;;19.42;46.41;102096.91;5026907;28;19928;-70
2022/05/03 09:15:30;;;;;;;;;;;;;;;19.57;46.20;102099.81;5018550;28;19917;-70
2022/05/03 09:17:56;;;;;;;;;;;;;;;19.71;46.15;102096.44;4994135;28;19921;-69
2022/05/03 09:25:55;;;;;;;;;;;;;;;19.61;46.97;102095.50;5007103;28;20387;-72
2022/05/03 09:28:22;;;;;;;;;;;;;;;19.60;46.34;102091.94;5032335;28;19925;-70
2022/05/03 09:30:50;;;;;;;;;;;;;;;20.54;44.17;102081.47;5032175;28;20000;-70
2022/05/03 09:33:19;;;;;;;;;;;;;;;20.97;43.23;102086.69;5032901;28;19924;-70
2022/05/03 09:35:45;;;;;;;;;;;;;;;20.89;43.05;102088.00;5032293;28;20004;-69
2022/05/03 09:38:10;;;;;;;;;;;;;;;21.55;41.87;102086.47;5013005;28;20000;-70
2022/05/03 09:40:36;;;;;;;;;;;;;;;21.24;42.50;102084.69;5022965;28;19917;-71
2022/05/03 09:43:05;;;;;;;;;;;;;;;21.16;42.36;102089.84;5032336;28;19922;-71
2022/05/03 09:45:30;;;;;;;;;;;;;;;21.68;41.13;102085.13;5023406;28;19918;-70
2022/05/03 09:47:56;;;;;;;;;;;;;;;22.15;40.63;102079.56;5013014;28;19918;-72
2022/05/03 09:50:39;;;;;;;;;;;;;;;22.47;39.05;102078.19;5011724;28;19932;-69
2022/05/03 09:53:14;;;;;;;;;;;;;;;21.24;41.78;102086.59;5011953;28;19921;-71
2022/05/03 09:55:40;;;;;;;;;;;;;;;20.83;43.56;102089.03;4991588;28;20132;-70
2022/05/03 09:58:07;;;;;;;;;;;;;;;21.21;43.06;102087.94;5024360;28;19917;-71
2022/05/03 10:00:36;;;;;;;;;;;;;;;20.64;44.04;102093.28;5031628;28;19917;-69
2022/05/03 10:03:02;;;;;;;;;;;;;;;19.53;46.55;102095.94;5032317;28;19917;-70
2022/05/03 10:05:27;;;;;;;;;;;;;;;20.69;44.54;102103.44;5022749;28;20281;-69
2022/05/03 10:07:53;;;;;;;;;;;;;;;20.41;44.98;102101.00;5012100;28;19921;-70
2022/05/03 10:10:19;;;;;;;;;;;;;;;20.60;44.60;102099.56;5012113;28;20284;-72
2022/05/03 10:12:45;;;;;;;;;;;;;;;19.43;47.57;102098.53;4998622;28;19972;-70
2022/05/03 10:15:11;;;;;;;;;;;;;;;20.19;45.34;102100.25;4992079;28;19917;-70
2022/05/03 10:23:03;;;;;;;;;;;;;;;18.16;51.36;102114.72;4997272;28;19929;-70
2022/05/03 10:25:29;;;;;;;;;;;;;;;18.54;50.44;102110.50;4991933;28;19926;-70
2022/05/03 10:27:56;;;;;;;;;;;;;;;19.62;47.55;102117.06;4992171;28;19922;-70
2022/05/03 10:30:22;;;;;;;;;;;;;;;19.94;46.32;102098.88;4992223;28;19917;-71
2022/05/03 10:33:06;;;;;;;;;;;;;;;19.95;46.00;102111.44;4992111;28;19953;-69
2022/05/03 10:35:36;;;;;;;;;;;;;;;19.34;47.86;102106.31;5004502;28;19918;-71
2022/05/03 10:38:02;;;;;;;;;;;;;;;19.27;48.39;102100.22;5011607;28;19921;-71
2022/05/03 10:40:33;;;;;;;;;;;;;;;20.01;46.27;102104.97;5011509;28;20364;-69
2022/05/03 10:43:04;;;;;;;;;;;;;;;18.99;49.08;102098.44;5011991;28;19921;-71
2022/05/03 10:45:29;;;;;;;;;;;;;;;19.82;46.42;102100.94;5009712;28;19932;-70
2022/05/03 10:47:54;;;;;;;;;;;;;;;20.63;43.89;102094.38;5012450;28;20008;-69
2022/05/03 10:50:21;;;;;;;;;;;;;;;20.27;45.05;102097.88;5011660;28;19925;-70
2022/05/03 10:52:56;;;;;;;;;;;;;;;20.11;45.42;102104.22;5008665;28;19921;-69
2022/05/03 10:55:28;;;;;;;;;;;;;;;21.10;43.19;102099.91;4992153;28;19922;-69
2022/05/03 10:58:12;;;;;;;;;;;;;;;20.37;44.08;102103.44;4999091;28;20397;-71
2022/05/03 11:00:56;;;;;;;;;;;;;;;20.98;42.95;102096.53;5004304;28;20325;-69
2022/05/03 11:03:21;;;;;;;;;;;;;;;20.79;43.09;102092.59;5008372;28;19913;-69
2022/05/03 11:06:05;;;;;;;;;;;;;;;21.12;42.45;102092.28;5000531;28;20385;-69
2022/05/03 11:08:30;;;;;;;;;;;;;;;20.38;43.71;102091.44;5003023;28;19933;-70
2022/05/03 11:10:56;;;;;;;;;;;;;;;19.67;45.81;102089.03;5005268;28;19929;-70
2022/05/03 11:13:40;;;;;;;;;;;;;;;18.97;47.98;102086.13;4998985;28;19972;-70
2022/05/03 11:16:22;;;;;;;;;;;;;;;18.96;48.42;102095.41;5005873;28;20056;-70
2022/05/03 11:18:47;;;;;;;;;;;;;;;18.45;49.44;102087.50;5020191;28;19960;-70
2022/05/03 11:21:13;;;;;;;;;;;;;;;17.82;51.07;102087.69;4994992;28;19948;-70
2022/05/03 11:23:52;;;;;;;;;;;;;;;18.84;48.02;102095.50;4995602;28;20377;-71
2022/05/03 11:26:18;;;;;;;;;;;;;;;19.20;47.13;102094.13;4995611;28;19991;-69
2022/05/03 11:28:50;;;;;;;;;;;;;;;18.19;49.71;102094.38;4995029;28;19933;-71
2022/05/03 11:31:17;;;;;;;;;;;;;;;18.64;48.89;102094.34;5004433;28;19933;-70
2022/05/03 11:33:50;;;;;;;;;;;;;;;18.24;49.87;102094.44;4999159;28;19960;-70
2022/05/03 11:36:15;;;;;;;;;;;;;;;18.52;48.84;102090.88;5009567;28;20452;-70
2022/05/03 11:38:40;;;;;;;;;;;;;;;18.24;49.31;102092.56;5012558;28;20016;-70
2022/05/03 11:41:07;;;;;;;;;;;;;;;18.57;47.94;102094.53;5014915;28;19953;-71
2022/05/03 11:43:33;;;;;;;;;;;;;;;19.62;45.58;102095.25;5000319;28;19921;-71
2022/05/03 11:45:59;;;;;;;;;;;;;;;19.50;45.57;102097.25;5006022;28;19922;-70
2022/05/03 11:48:24;;;;;;;;;;;;;;;19.01;46.80;102095.47;5000346;28;20056;-70
2022/05/03 11:56:23;;;;;;;;;;;;;;;18.78;47.30;102099.22;5005924;28;19976;-70
2022/05/03 11:58:48;;;;;;;;;;;;;;;18.33;48.14;102093.00;4998710;28;19921;-69
2022/05/03 12:01:15;;;;;;;;;;;;;;;18.64;47.29;102094.34;5001615;28;20300;-69
2022/05/03 12:03:44;;;;;;;;;;;;;;;18.12;48.89;102089.06;4994836;28;19917;-69
2022/05/03 12:06:09;;;;;;;;;;;;;;;18.71;46.85;102090.38;4996348;28;19922;-69
2022/05/03 12:08:35;;;;;;;;;;;;;;;19.21;45.60;102088.41;5013008;28;20245;-71
2022/05/03 12:11:00;;;;;;;;;;;;;;;19.07;45.39;102089.00;5004320;28;20017;-70
2022/05/03 12:13:27;;;;;;;;;;;;;;;19.03;45.54;102083.25;5005855;28;20021;-70
2022/05/03 12:15:58;;;;;;;;;;;;;;;19.04;46.11;102086.81;5000828;28;20293;-70
2022/05/03 12:18:34;;;;;;;;;;;;;;;19.53;43.76;102085.03;4998598;28;19975;-69
2022/05/03 12:21:02;;;;;;;;;;;;;;;19.86;43.44;102076.69;5003950;28;19976;-69
2022/05/03 12:23:33;;;;;;;;;;;;;;;19.69;43.80;102081.41;5004558;28;19987;-70
2022/05/03 12:25:59;;;;;;;;;;;;;;;19.13;45.40;102083.41;5004427;28;20020;-70
2022/05/03 12:28:35;;;;;;;;;;;;;;;18.40;46.77;102078.16;5002242;28;20052;-70
2022/05/03 12:31:02;;;;;;;;;;;;;;;19.02;45.28;102080.78;5002448;28;20128;-69
2022/05/03 12:33:28;;;;;;;;;;;;;;;19.83;43.54;102074.50;5003818;28;19913;-69
2022/05/03 12:35:53;;;;;;;;;;;;;;;20.26;42.21;102071.69;5001692;28;19922;-69
2022/05/03 12:38:21;;;;;;;;;;;;;;;20.27;42.40;102064.28;5002918;28;20262;-70
2022/05/03 12:40:57;;;;;;;;;;;;;;;19.43;44.54;102063.94;5001355;28;19965;-70
2022/05/03 12:43:24;;;;;;;;;;;;;;;19.52;43.61;102067.03;5001530;28;20393;-69
2022/05/03 12:46:00;;;;;;;;;;;;;;;19.93;43.06;102055.50;5006180;28;19936;-69
2022/05/03 12:48:27;;;;;;;;;;;;;;;20.75;40.87;102066.88;4999038;28;19922;-69
2022/05/03 12:50:52;;;;;;;;;;;;;;;19.84;42.64;102054.28;5004109;28;19922;-69
2022/05/03 12:53:22;;;;;;;;;;;;;;;21.44;39.09;102054.72;5002653;28;19925;-70
2022/05/03 12:55:47;;;;;;;;;;;;;;;20.00;41.84;102050.66;5004107;28;19929;-69
2022/05/03 12:58:27;;;;;;;;;;;;;;;20.91;40.14;102047.56;5003940;28;20254;-70
2022/05/03 13:00:53;;;;;;;;;;;;;;;20.93;40.33;102055.53;5008785;28;20443;-69
2022/05/03 13:03:19;;;;;;;;;;;;;;;20.17;40.97;102052.16;5013471;28;19948;-70
2022/05/03 13:05:45;;;;;;;;;;;;;;;20.81;39.86;102042.03;5012699;28;19965;-66
2022/05/03 13:08:10;;;;;;;;;;;;;;;20.77;40.17;102045.56;5012824;28;19991;-67
2022/05/03 13:10:37;;;;;;;;;;;;;;;21.97;37.41;102037.09;5012099;28;19933;-68
2022/05/03 13:13:03;;;;;;;;;;;;;;;22.48;36.26;102038.75;5012580;28;19918;-72
2022/05/03 13:15:28;;;;;;;;;;;;;;;21.93;37.67;102035.16;5012987;28;20510;-70